createdAt,value
2018-11-01T00:00:15.704Z,4.07
2018-11-01T00:07:48.779Z,5.90
2018-11-01T00:10:16.960Z,6.20
2018-11-01T00:12:46.423Z,6.33
2018-11-01T00:15:15.505Z,6.30
2018-11-01T00:17:43.684Z,3.90
2018-11-01T00:20:13.000Z,4.30
2018-11-01T00:22:41.767Z,5.13
2018-11-01T00:25:11.490Z,4.33
2018-11-01T00:27:40.039Z,5.73
2018-11-01T00:30:08.950Z,5.17
2018-11-01T00:32:37.153Z,8.23
2018-11-01T00:35:05.460Z,9.63
2018-11-01T00:37:33.668Z,5.20
2018-11-01T00:40:01.876Z,6.67
2018-11-01T00:42:30.339Z,5.00
2018-11-01T00:44:58.582Z,6.73
2018-11-01T00:47:26.785Z,6.50
2018-11-01T00:49:55.069Z,4.37
2018-11-01T00:52:23.241Z,4.17
2018-11-01T00:54:51.417Z,11.73
2018-11-01T00:57:19.635Z,6.00
2018-11-01T00:59:47.798Z,6.13
2018-11-01T01:02:16.017Z,10.10
2018-11-01T01:04:44.464Z,5.47
2018-11-01T01:07:13.143Z,3.50
2018-11-01T01:09:41.328Z,3.67
2018-11-01T01:12:09.508Z,5.00
2018-11-01T01:14:37.713Z,7.50
2018-11-01T01:17:05.929Z,7.13
2018-11-01T01:19:34.113Z,6.90
2018-11-01T01:22:02.328Z,5.30
2018-11-01T01:24:30.524Z,4.40
2018-11-01T01:26:58.750Z,6.50
2018-11-01T01:29:26.922Z,5.63
2018-11-01T01:31:55.121Z,10.13
2018-11-01T01:34:23.327Z,15.93
2018-11-01T01:36:51.527Z,5.40
2018-11-01T01:39:19.703Z,5.47
2018-11-01T01:41:47.906Z,4.47
2018-11-01T01:44:16.085Z,4.30
2018-11-01T01:46:44.286Z,5.07
2018-11-01T01:49:12.507Z,7.80
2018-11-01T01:51:40.705Z,6.10
2018-11-01T01:54:08.873Z,6.40
2018-11-01T01:56:37.045Z,7.40
2018-11-01T01:59:05.984Z,8.73
2018-11-01T02:01:34.132Z,5.80
2018-11-01T02:04:02.382Z,4.30
2018-11-01T02:06:30.588Z,4.33
2018-11-01T02:09:01.424Z,5.23
2018-11-01T02:11:29.623Z,6.33
2018-11-01T02:13:57.801Z,10.90
2018-11-01T02:16:25.991Z,6.00
2018-11-01T02:18:54.200Z,14.63
2018-11-01T02:21:22.360Z,12.70
2018-11-01T02:23:50.520Z,5.70
2018-11-01T02:26:20.250Z,5.00
2018-11-01T02:28:48.404Z,5.40
2018-11-01T02:31:16.575Z,10.80
2018-11-01T02:33:44.756Z,10.33
2018-11-01T02:36:12.941Z,8.60
2018-11-01T02:38:41.263Z,7.43
2018-11-01T02:41:09.376Z,8.90
2018-11-01T02:43:37.565Z,9.23
2018-11-01T02:46:05.781Z,10.03
2018-11-01T02:48:33.930Z,4.53
2018-11-01T02:51:02.120Z,4.20
2018-11-01T02:53:30.280Z,4.37
2018-11-01T02:55:58.481Z,8.40
2018-11-01T02:58:26.695Z,5.07
2018-11-01T03:00:54.939Z,5.90
2018-11-01T03:03:23.104Z,5.97
2018-11-01T03:05:51.261Z,8.20
2018-11-01T03:08:19.420Z,5.57
2018-11-01T03:10:47.612Z,7.87
2018-11-01T03:13:15.757Z,4.70
2018-11-01T03:15:43.956Z,7.27
2018-11-01T03:18:12.156Z,5.43
2018-11-01T03:20:40.778Z,5.80
2018-11-01T03:23:08.958Z,11.07
2018-11-01T03:25:37.141Z,4.53
2018-11-01T03:28:05.521Z,3.40
2018-11-01T03:30:33.667Z,7.87
2018-11-01T03:33:01.951Z,7.30
2018-11-01T03:35:30.060Z,3.60
2018-11-01T03:37:58.276Z,3.70
2018-11-01T03:40:26.470Z,7.13
2018-11-01T03:42:54.617Z,4.60
2018-11-01T03:45:22.856Z,6.90
2018-11-01T03:47:50.940Z,5.40
2018-11-01T03:50:19.092Z,4.70
2018-11-01T03:52:47.286Z,7.03
2018-11-01T03:55:15.526Z,8.07
2018-11-01T03:57:43.680Z,4.60
2018-11-01T04:00:14.149Z,5.57
2018-11-01T04:02:42.644Z,5.87
2018-11-01T04:05:10.932Z,7.60
2018-11-01T04:07:39.486Z,7.70
2018-11-01T04:10:08.984Z,5.43
2018-11-01T04:12:37.384Z,4.30
2018-11-01T04:15:07.371Z,9.70
2018-11-01T04:17:35.590Z,4.53
2018-11-01T04:20:03.765Z,3.30
2018-11-01T04:22:31.938Z,5.10
2018-11-01T04:25:00.374Z,3.37
2018-11-01T04:27:28.568Z,6.13
2018-11-01T04:29:56.742Z,3.37
2018-11-01T04:32:24.937Z,3.30
2018-11-01T04:34:53.089Z,5.73
2018-11-01T04:37:21.245Z,8.40
2018-11-01T04:39:49.446Z,5.23
2018-11-01T04:42:17.799Z,4.57
2018-11-01T04:44:45.977Z,3.70
2018-11-01T04:47:14.236Z,3.00
2018-11-01T04:49:42.349Z,4.33
2018-11-01T04:52:10.546Z,2.30
2018-11-01T04:54:38.739Z,3.97
2018-11-01T04:57:06.943Z,4.60
2018-11-01T04:59:35.109Z,3.63
2018-11-01T05:02:03.312Z,9.30
2018-11-01T05:11:32.845Z,5.47
2018-11-01T05:14:01.064Z,4.07
2018-11-01T05:16:29.297Z,4.43
2018-11-01T05:18:57.501Z,3.00
2018-11-01T05:21:25.673Z,6.73
2018-11-01T05:23:53.869Z,2.63
2018-11-01T05:26:22.043Z,4.80
2018-11-01T05:28:50.236Z,4.20
2018-11-01T05:31:18.450Z,4.23
2018-11-01T05:33:46.652Z,3.30
2018-11-01T05:36:14.850Z,4.67
2018-11-01T05:38:43.173Z,4.60
2018-11-01T05:41:11.351Z,5.67
2018-11-01T05:43:39.521Z,5.03
2018-11-01T05:46:07.721Z,3.43
2018-11-01T05:48:35.885Z,3.27
2018-11-01T05:51:04.060Z,2.80
2018-11-01T05:53:32.290Z,3.40
2018-11-01T05:56:00.459Z,4.60
2018-11-01T05:58:28.704Z,5.70
2018-11-01T06:00:56.899Z,4.20
2018-11-01T06:03:25.140Z,3.27
2018-11-01T06:05:53.300Z,5.77
2018-11-01T06:08:25.269Z,3.43
2018-11-01T06:10:53.564Z,2.93
2018-11-01T06:13:21.716Z,6.13
2018-11-01T06:15:49.930Z,4.80
2018-11-01T06:18:18.099Z,4.77
2018-11-01T06:20:46.372Z,5.33
2018-11-01T06:23:14.537Z,4.73
2018-11-01T06:25:42.795Z,3.60
2018-11-01T06:28:11.190Z,6.20
2018-11-01T06:30:39.439Z,5.40
2018-11-01T06:33:07.630Z,5.43
2018-11-01T06:35:40.948Z,2.97
2018-11-01T06:38:09.113Z,6.80
2018-11-01T06:40:37.368Z,3.40
2018-11-01T06:43:05.614Z,3.70
2018-11-01T06:45:33.805Z,4.57
2018-11-01T06:48:02.001Z,2.93
2018-11-01T06:50:31.581Z,2.57
2018-11-01T06:52:59.766Z,2.67
2018-11-01T06:55:27.997Z,7.03
2018-11-01T06:57:56.269Z,9.03
2018-11-01T07:00:24.688Z,3.27
2018-11-01T07:02:52.866Z,4.43
2018-11-01T07:05:21.064Z,4.93
2018-11-01T07:07:49.242Z,3.60
2018-11-01T07:10:18.311Z,4.43
2018-11-01T07:12:46.604Z,4.70
2018-11-01T07:15:15.985Z,11.90
2018-11-01T07:17:44.416Z,4.90
2018-11-01T07:20:14.528Z,4.27
2018-11-01T07:22:43.200Z,5.20
2018-11-01T07:25:12.942Z,4.67
2018-11-01T07:27:41.286Z,6.67
2018-11-01T07:30:13.120Z,25.50
2018-11-01T07:32:41.478Z,12.80
2018-11-01T07:35:10.578Z,4.20
2018-11-01T07:37:41.752Z,4.70
2018-11-01T07:40:13.032Z,2.90
2018-11-01T07:42:41.792Z,4.67
2018-11-01T07:45:11.133Z,7.10
2018-11-01T07:47:40.099Z,14.63
2018-11-01T07:50:09.217Z,4.80
2018-11-01T07:52:37.553Z,3.20
2018-11-01T07:55:07.050Z,4.20
2018-11-01T07:57:35.267Z,7.73
2018-11-01T08:00:06.721Z,6.70
2018-11-01T08:02:35.284Z,11.40
2018-11-01T08:05:03.458Z,6.10
2018-11-01T08:07:31.640Z,4.03
2018-11-01T08:10:00.244Z,9.27
2018-11-01T08:12:28.412Z,5.50
2018-11-01T08:14:56.743Z,8.93
2018-11-01T08:17:25.650Z,4.20
2018-11-01T08:19:54.130Z,13.63
2018-11-01T08:22:22.291Z,8.70
2018-11-01T08:24:50.476Z,7.67
2018-11-01T08:27:18.639Z,6.03
2018-11-01T08:29:46.896Z,5.83
2018-11-01T08:32:15.091Z,5.00
2018-11-01T08:34:43.828Z,6.47
2018-11-01T08:37:12.155Z,9.53
2018-11-01T08:39:40.453Z,8.40
2018-11-01T08:42:08.755Z,8.73
2018-11-01T08:44:37.100Z,8.73
2018-11-01T08:47:06.730Z,8.70
2018-11-01T08:49:35.379Z,4.70
2018-11-01T08:52:03.585Z,3.70
2018-11-01T08:54:31.772Z,4.40
2018-11-01T08:57:00.161Z,10.50
2018-11-01T08:59:28.337Z,12.53
2018-11-01T09:01:56.505Z,12.00
2018-11-01T09:04:24.972Z,7.40
2018-11-01T09:06:53.180Z,3.43
2018-11-01T09:09:21.768Z,8.50
2018-11-01T09:11:52.094Z,7.27
2018-11-01T09:14:20.377Z,7.90
2018-11-01T09:16:48.652Z,2.37
2018-11-01T09:19:16.889Z,7.17
2018-11-01T09:21:45.244Z,5.40
2018-11-01T09:24:13.549Z,3.67
2018-11-01T09:26:41.797Z,5.63
2018-11-01T09:29:09.892Z,5.70
2018-11-01T09:31:38.088Z,4.43
2018-11-01T09:34:06.265Z,8.43
2018-11-01T09:36:34.470Z,9.33
2018-11-01T09:39:02.659Z,8.10
2018-11-01T09:41:37.406Z,4.67
2018-11-01T09:44:05.596Z,4.43
2018-11-01T09:46:34.362Z,7.83
2018-11-01T09:49:02.878Z,6.80
2018-11-01T09:51:31.035Z,4.50
2018-11-01T09:53:59.193Z,4.63
2018-11-01T09:56:27.631Z,5.53
2018-11-01T09:58:55.761Z,6.00
2018-11-01T10:01:24.124Z,5.73
2018-11-01T10:03:52.773Z,11.30
2018-11-01T10:06:20.933Z,9.97
2018-11-01T10:08:49.096Z,9.10
2018-11-01T10:11:17.815Z,3.90
2018-11-01T10:13:46.062Z,5.97
2018-11-01T10:16:14.384Z,4.30
2018-11-01T10:18:42.528Z,9.80
2018-11-01T10:21:10.721Z,8.87
2018-11-01T10:23:38.897Z,19.37
2018-11-01T10:26:07.032Z,14.23
2018-11-01T10:28:35.193Z,5.83
2018-11-01T10:31:03.717Z,6.50
2018-11-01T10:33:31.864Z,5.30
2018-11-01T10:36:00.512Z,12.47
2018-11-01T10:38:29.808Z,12.67
2018-11-01T10:40:58.153Z,5.57
2018-11-01T10:43:26.344Z,4.90
2018-11-01T10:45:54.682Z,9.43
2018-11-01T10:48:22.813Z,7.00
2018-11-01T10:50:50.988Z,8.00
2018-11-01T10:53:20.578Z,7.40
2018-11-01T10:55:48.836Z,7.30
2018-11-01T10:58:17.081Z,5.30
2018-11-01T11:00:50.858Z,8.17
2018-11-01T11:03:19.596Z,12.77
2018-11-01T11:05:47.897Z,5.50
2018-11-01T11:08:16.061Z,6.13
2018-11-01T11:10:44.284Z,7.50
2018-11-01T11:13:12.631Z,9.10
2018-11-01T11:15:40.839Z,10.30
2018-11-01T11:18:08.985Z,5.53
2018-11-01T11:20:37.325Z,5.47
2018-11-01T11:23:05.341Z,9.73
2018-11-01T11:25:33.676Z,12.33
2018-11-01T11:28:01.846Z,17.87
2018-11-01T11:30:30.257Z,8.50
2018-11-01T11:32:58.284Z,11.40
2018-11-01T11:35:26.473Z,10.13
2018-11-01T11:37:54.613Z,18.73
2018-11-01T11:40:23.777Z,13.40
2018-11-01T11:42:51.942Z,7.87
2018-11-01T11:45:20.090Z,8.23
2018-11-01T11:47:48.292Z,9.87
2018-11-01T11:50:16.421Z,8.03
2018-11-01T11:52:45.093Z,11.37
2018-11-01T11:55:13.368Z,6.03
2018-11-01T11:57:41.526Z,10.80
2018-11-01T12:00:12.887Z,9.77
2018-11-01T12:02:41.104Z,5.93
2018-11-01T12:05:09.251Z,8.07
2018-11-01T12:07:37.735Z,7.00
2018-11-01T12:10:06.672Z,9.80
2018-11-01T12:12:34.874Z,17.27
2018-11-01T12:15:03.241Z,6.40
2018-11-01T12:17:31.400Z,8.43
2018-11-01T12:19:59.744Z,11.07
2018-11-01T12:22:27.993Z,8.43
2018-11-01T12:24:56.104Z,8.70
2018-11-01T12:27:24.276Z,9.53
2018-11-01T12:29:52.437Z,9.47
2018-11-01T12:32:20.681Z,10.43
2018-11-01T12:34:48.892Z,7.83
2018-11-01T12:37:17.037Z,11.60
2018-11-01T12:39:45.845Z,6.40
2018-11-01T12:42:14.310Z,7.07
2018-11-01T12:44:42.482Z,9.80
2018-11-01T12:47:10.718Z,11.30
2018-11-01T12:49:38.919Z,8.50
2018-11-01T12:52:07.090Z,9.77
2018-11-01T12:54:35.256Z,14.70
2018-11-01T12:57:03.812Z,20.43
2018-11-01T12:59:32.021Z,9.30
2018-11-01T13:02:00.344Z,17.73
2018-11-01T13:04:28.501Z,11.17
2018-11-01T13:06:56.776Z,8.00
2018-11-01T13:09:25.061Z,9.07
2018-11-01T13:11:53.205Z,8.80
2018-11-01T13:14:21.401Z,15.73
2018-11-01T13:16:49.559Z,8.83
2018-11-01T13:19:17.772Z,12.90
2018-11-01T13:21:45.953Z,9.63
2018-11-01T13:24:14.129Z,10.53
2018-11-01T13:26:42.358Z,12.07
2018-11-01T13:29:10.576Z,11.53
2018-11-01T13:31:39.123Z,6.43
2018-11-01T13:34:07.288Z,8.03
2018-11-01T13:36:35.453Z,8.57
2018-11-01T13:39:04.949Z,7.40
2018-11-01T13:41:33.178Z,19.70
2018-11-01T13:44:01.328Z,8.33
2018-11-01T13:46:29.651Z,10.90
2018-11-01T13:48:57.814Z,9.97
2018-11-01T13:51:26.010Z,24.50
2018-11-01T13:53:54.196Z,11.03
2018-11-01T13:56:22.573Z,8.03
2018-11-01T13:58:50.668Z,12.00
2018-11-01T14:01:18.808Z,9.50
2018-11-01T14:03:47.738Z,12.70
2018-11-01T14:06:15.957Z,11.53
2018-11-01T14:08:44.021Z,8.80
2018-11-01T14:11:13.059Z,10.73
2018-11-01T14:13:41.336Z,12.83
2018-11-01T14:16:09.368Z,9.10
2018-11-01T14:18:37.637Z,13.10
2018-11-01T14:21:06.036Z,9.93
2018-11-01T14:23:34.271Z,13.87
2018-11-01T14:26:02.492Z,16.43
2018-11-01T14:28:30.780Z,11.80
2018-11-01T14:30:59.034Z,16.50
2018-11-01T14:33:27.179Z,11.00
2018-11-01T14:35:55.413Z,11.30
2018-11-01T14:38:23.621Z,11.30
2018-11-01T14:40:51.839Z,12.57
2018-11-01T14:43:20.042Z,12.47
2018-11-01T14:45:48.240Z,13.20
2018-11-01T14:48:17.335Z,10.93
2018-11-01T14:50:45.501Z,12.77
2018-11-01T14:53:14.845Z,7.83
2018-11-01T14:55:43.326Z,12.93
2018-11-01T14:58:12.135Z,14.40
2018-11-01T15:00:38.300Z,12.73
2018-11-01T15:03:06.477Z,9.70
2018-11-01T15:05:34.754Z,15.40
2018-11-01T15:08:02.932Z,14.47
2018-11-01T15:10:31.172Z,11.90
2018-11-01T15:12:59.440Z,15.60
2018-11-01T15:15:27.612Z,12.87
2018-11-01T15:17:55.747Z,16.17
2018-11-01T15:20:23.945Z,22.10
2018-11-01T15:22:52.293Z,26.93
2018-11-01T15:25:20.652Z,19.20
2018-11-01T15:27:48.784Z,13.97
2018-11-01T15:30:17.285Z,17.63
2018-11-01T15:32:45.282Z,20.23
2018-11-01T15:35:13.492Z,10.47
2018-11-01T15:37:42.005Z,18.03
2018-11-01T15:40:11.393Z,16.13
2018-11-01T15:42:39.864Z,22.37
2018-11-01T15:45:08.824Z,12.90
2018-11-01T15:47:37.519Z,12.93
2018-11-01T15:50:06.417Z,15.03
2018-11-01T15:52:34.723Z,25.13
2018-11-01T15:55:03.434Z,15.90
2018-11-01T15:57:31.558Z,15.53
2018-11-01T15:59:59.830Z,19.13
2018-11-01T16:02:28.097Z,15.43
2018-11-01T16:04:56.090Z,14.80
2018-11-01T16:07:24.347Z,16.93
2018-11-01T16:09:52.499Z,12.97
2018-11-01T16:12:21.673Z,13.47
2018-11-01T16:14:49.869Z,15.83
2018-11-01T16:17:17.988Z,14.83
2018-11-01T16:19:46.460Z,20.43
2018-11-01T16:22:14.571Z,18.90
2018-11-01T16:24:42.734Z,12.20
2018-11-01T16:27:10.911Z,14.93
2018-11-01T16:29:39.152Z,12.20
2018-11-01T16:32:07.312Z,14.17
2018-11-01T16:34:35.622Z,14.40
2018-11-01T16:37:03.804Z,12.97
2018-11-01T16:39:31.985Z,30.30
2018-11-01T16:42:00.196Z,12.80
2018-11-01T16:44:28.402Z,16.70
2018-11-01T16:46:56.533Z,15.87
2018-11-01T16:49:24.750Z,15.90
2018-11-01T16:51:52.894Z,10.23
2018-11-01T16:54:21.121Z,11.90
2018-11-01T16:56:49.265Z,15.77
2018-11-01T16:59:17.400Z,9.23
2018-11-01T17:01:45.596Z,13.07
2018-11-01T17:04:13.777Z,12.20
2018-11-01T17:06:42.072Z,13.10
2018-11-01T17:09:11.073Z,10.57
2018-11-01T17:11:39.561Z,12.97
2018-11-01T17:14:08.111Z,12.47
2018-11-01T17:16:36.975Z,10.30
2018-11-01T17:19:06.017Z,9.10
2018-11-01T17:21:34.234Z,10.80
2018-11-01T17:24:02.379Z,12.70
2018-11-01T17:26:30.547Z,19.30
2018-11-01T17:28:58.777Z,17.93
2018-11-01T17:31:27.003Z,15.67
2018-11-01T17:33:55.144Z,12.90
2018-11-01T17:36:23.345Z,11.80
2018-11-01T17:38:51.600Z,12.17
2018-11-01T17:41:19.789Z,16.17
2018-11-01T17:43:47.981Z,11.83
2018-11-01T17:46:16.260Z,13.77
2018-11-01T17:48:44.304Z,16.90
2018-11-01T17:51:12.606Z,9.20
2018-11-01T17:53:40.829Z,17.33
2018-11-01T17:56:08.983Z,12.10
2018-11-01T17:58:37.125Z,16.40
2018-11-01T18:01:05.847Z,17.13
2018-11-01T18:03:33.918Z,13.60
2018-11-01T18:06:02.234Z,13.10
2018-11-01T18:08:30.482Z,22.13
2018-11-01T18:10:58.877Z,12.87
2018-11-01T18:13:27.090Z,18.37
2018-11-01T18:15:55.406Z,16.70
2018-11-01T18:18:23.610Z,10.93
2018-11-01T18:20:52.060Z,13.97
2018-11-01T18:23:20.278Z,13.40
2018-11-01T18:25:49.582Z,19.00
2018-11-01T18:28:18.656Z,16.53
2018-11-01T18:30:46.837Z,13.17
2018-11-01T18:33:15.136Z,17.97
2018-11-01T18:35:43.269Z,13.00
2018-11-01T18:38:11.473Z,11.17
2018-11-01T18:40:39.599Z,15.63
2018-11-01T18:43:07.996Z,15.87
2018-11-01T18:45:36.190Z,14.87
2018-11-01T18:48:04.366Z,13.87
2018-11-01T18:50:32.994Z,12.20
2018-11-01T18:53:01.313Z,14.67
2018-11-01T18:55:29.500Z,17.37
2018-11-01T18:57:57.759Z,10.77
2018-11-01T19:00:25.930Z,15.60
2018-11-01T19:02:54.092Z,10.67
2018-11-01T19:05:22.408Z,13.43
2018-11-01T19:07:51.658Z,10.47
2018-11-01T19:10:19.839Z,13.40
2018-11-01T19:12:48.143Z,11.33
2018-11-01T19:15:16.673Z,10.33
2018-11-01T19:17:45.232Z,11.70
2018-11-01T19:20:13.820Z,12.10
2018-11-01T19:22:41.993Z,10.00
2018-11-01T19:25:10.852Z,10.67
2018-11-01T19:27:39.276Z,10.50
2018-11-01T19:30:08.674Z,12.77
2018-11-01T19:32:36.941Z,13.43
2018-11-01T19:35:06.009Z,18.10
2018-11-01T19:37:34.156Z,14.53
2018-11-01T19:40:02.539Z,15.13
2018-11-01T19:42:30.585Z,16.47
2018-11-01T19:44:58.922Z,11.50
2018-11-01T19:47:27.106Z,9.70
2018-11-01T19:49:55.253Z,11.80
2018-11-01T19:52:23.479Z,11.87
2018-11-01T19:54:51.771Z,10.60
2018-11-01T19:57:19.859Z,12.20
2018-11-01T19:59:47.985Z,18.60
2018-11-01T20:02:16.144Z,17.50
2018-11-01T20:04:45.174Z,12.07
2018-11-01T20:07:13.847Z,17.40
2018-11-01T20:09:42.220Z,23.73
2018-11-01T20:12:10.583Z,13.90
2018-11-01T20:14:39.185Z,14.70
2018-11-01T20:17:07.628Z,14.20
2018-11-01T20:19:35.839Z,14.60
2018-11-01T20:22:03.942Z,16.30
2018-11-01T20:24:32.221Z,9.57
2018-11-01T20:27:00.462Z,14.00
2018-11-01T20:29:28.689Z,12.87
2018-11-01T20:31:56.950Z,18.87
2018-11-01T20:34:25.066Z,14.77
2018-11-01T20:36:53.277Z,16.20
2018-11-01T20:39:21.446Z,13.27
2018-11-01T20:41:49.685Z,11.87
2018-11-01T20:44:17.955Z,17.33
2018-11-01T20:46:46.822Z,12.70
2018-11-01T20:49:15.005Z,10.73
2018-11-01T20:51:44.166Z,14.00
2018-11-01T20:54:13.597Z,13.90
2018-11-01T20:56:42.199Z,11.67
2018-11-01T20:59:10.934Z,13.20
2018-11-01T21:01:39.923Z,13.50
2018-11-01T21:04:08.486Z,11.37
2018-11-01T21:06:37.162Z,11.93
2018-11-01T21:09:08.493Z,15.13
2018-11-01T21:11:37.394Z,14.17
2018-11-01T21:14:05.568Z,15.33
2018-11-01T21:16:33.742Z,15.80
2018-11-01T21:19:01.909Z,13.77
2018-11-01T21:21:30.121Z,20.57
2018-11-01T21:23:58.385Z,16.37
2018-11-01T21:26:26.554Z,12.33
2018-11-01T21:28:54.792Z,14.93
2018-11-01T21:31:22.950Z,19.63
2018-11-01T21:33:51.148Z,18.60
2018-11-01T21:36:19.328Z,18.47
2018-11-01T21:38:47.463Z,19.83
2018-11-01T21:41:15.681Z,16.47
2018-11-01T21:43:43.944Z,19.37
2018-11-01T21:46:12.118Z,15.03
2018-11-01T21:48:40.271Z,15.17
2018-11-01T21:51:08.489Z,13.87
2018-11-01T21:53:36.706Z,16.90
2018-11-01T21:56:04.828Z,18.73
2018-11-01T21:58:33.004Z,14.90
2018-11-01T22:01:01.167Z,18.60
2018-11-01T22:03:29.314Z,23.77
2018-11-01T22:05:57.485Z,15.33
2018-11-01T22:08:25.761Z,12.77
2018-11-01T22:10:54.008Z,13.63
2018-11-01T22:13:22.181Z,13.40
2018-11-01T22:15:50.357Z,11.67
2018-11-01T22:18:18.625Z,15.23
2018-11-01T22:20:46.786Z,14.73
2018-11-01T22:23:14.975Z,16.30
2018-11-01T22:25:43.242Z,18.27
2018-11-01T22:28:11.464Z,12.00
2018-11-01T22:30:39.596Z,11.73
2018-11-01T22:33:07.825Z,15.10
2018-11-01T22:35:36.016Z,17.80
2018-11-01T22:38:04.314Z,10.97
2018-11-01T22:40:32.502Z,11.57
2018-11-01T22:43:00.655Z,13.33
2018-11-01T22:45:28.819Z,13.40
2018-11-01T22:47:57.026Z,11.90
2018-11-01T22:50:25.188Z,17.17
2018-11-01T22:52:53.385Z,16.97
2018-11-01T22:55:21.543Z,13.00
2018-11-01T22:57:49.736Z,16.60
2018-11-01T23:00:17.878Z,12.17
2018-11-01T23:02:46.045Z,15.60
2018-11-01T23:05:14.591Z,13.57
2018-11-01T23:07:42.792Z,13.00
2018-11-01T23:10:12.860Z,11.53
2018-11-01T23:12:41.199Z,15.67
2018-11-01T23:15:10.464Z,12.13
2018-11-01T23:17:39.350Z,11.03
2018-11-01T23:20:07.844Z,12.13
2018-11-01T23:22:36.066Z,11.10
2018-11-01T23:25:04.308Z,11.30
2018-11-01T23:27:32.595Z,11.57
2018-11-01T23:30:00.804Z,11.87
2018-11-01T23:32:28.936Z,11.40
2018-11-01T23:34:57.176Z,12.00
2018-11-01T23:37:30.630Z,11.27
2018-11-01T23:40:04.422Z,9.73
2018-11-01T23:42:38.096Z,9.63
2018-11-01T23:45:11.728Z,12.87
2018-11-01T23:47:45.369Z,11.00
2018-11-01T23:51:19.879Z,11.33
2018-11-01T23:53:48.858Z,7.10
2018-11-01T23:56:17.325Z,11.20
2018-11-01T23:58:45.606Z,5.30
